Time,TemperatureF,DewpointF,PressureIn,WindDirection,WindDirectionDegrees,WindSpeedMPH,WindSpeedGustMPH,Humidity,HourlyPrecipIn,Conditions,Clouds,dailyrainin,SoftwareType,DateUTC
2013-04-21 00:03:00,31.8,21.0,30.31,NW,315,14.0,-999.0,64,-99.99,,,0.01,weatherlink.com 1.10,2013-04-21 04:03:00,
2013-04-21 00:18:00,31.3,22.0,30.31,WNW,300,10.0,-999.0,68,-99.99,,,0.00,weatherlink.com 1.10,2013-04-21 04:18:00,
2013-04-21 00:33:00,31.0,21.0,30.32,WNW,298,8.0,-999.0,66,-99.99,,,0.00,weatherlink.com 1.10,2013-04-21 04:33:00,
2013-04-21 00:48:00,31.0,21.0,30.32,WNW,298,9.0,-999.0,67,-99.99,,,0.00,weatherlink.com 1.10,2013-04-21 04:48:00,
2013-04-21 01:03:00,30.7,21.0,30.33,WNW,300,9.0,-999.0,66,-99.99,,,0.00,weatherlink.com 1.10,2013-04-21 05:03:00,
2013-04-21 01:18:00,30.7,20.0,30.33,NW,312,14.0,-999.0,65,-99.99,,,0.00,weatherlink.com 1.10,2013-04-21 05:18:00,
2013-04-21 01:33:00,30.4,20.0,30.33,WNW,298,7.0,-999.0,65,-99.99,,,0.00,weatherlink.com 1.10,2013-04-21 05:33:00,
2013-04-21 01:48:00,30.1,20.0,30.34,NW,307,6.0,-999.0,66,-99.99,,,0.00,weatherlink.com 1.10,2013-04-21 05:48:00,
2013-04-21 02:04:00,29.7,19.0,30.34,NW,304,5.0,-999.0,65,-99.99,,,0.00,weatherlink.com 1.10,2013-04-21 06:04:00,
2013-04-21 02:19:00,29.4,19.0,30.36,WNW,302,3.0,-999.0,65,-99.99,,,0.00,weatherlink.com 1.10,2013-04-21 06:19:00,
2013-04-21 02:34:00,29.3,19.0,30.36,WNW,302,5.0,-999.0,65,-99.99,,,0.00,weatherlink.com 1.10,2013-04-21 06:34:00,
2013-04-21 02:49:00,29.3,19.0,30.36,NW,305,5.0,-999.0,66,-99.99,,,0.00,weatherlink.com 1.10,2013-04-21 06:49:00,
2013-04-21 03:04:00,29.1,19.0,30.37,NW,305,5.0,-999.0,66,-99.99,,,0.00,weatherlink.com 1.10,2013-04-21 07:04:00,
2013-04-21 03:19:00,29.0,19.0,30.37,NW,305,4.0,-999.0,65,-99.99,,,0.00,weatherlink.com 1.10,2013-04-21 07:19:00,
2013-04-21 03:34:00,29.0,19.0,30.38,NW,305,4.0,-999.0,65,-99.99,,,0.00,weatherlink.com 1.10,2013-04-21 07:34:00,
2013-04-21 03:49:00,28.8,19.0,30.39,NW,305,5.0,-999.0,67,-99.99,,,0.00,weatherlink.com 1.10,2013-04-21 07:49:00,
2013-04-21 04:04:00,28.8,19.0,30.39,NW,307,4.0,-999.0,67,-99.99,,,0.00,weatherlink.com 1.10,2013-04-21 08:04:00,
2013-04-21 04:19:00,28.7,19.0,30.40,NW,307,3.0,-999.0,68,-99.99,,,0.00,weatherlink.com 1.10,2013-04-21 08:19:00,
2013-04-21 04:34:00,28.4,19.0,30.41,NW,307,3.0,-999.0,68,-99.99,,,0.00,weatherlink.com 1.10,2013-04-21 08:34:00,
2013-04-21 04:49:00,28.2,19.0,30.42,NW,307,3.0,-999.0,69,-99.99,,,0.00,weatherlink.com 1.10,2013-04-21 08:49:00,
2013-04-21 05:04:00,27.9,19.0,30.42,NW,307,2.0,-999.0,69,-99.99,,,0.00,weatherlink.com 1.10,2013-04-21 09:04:00,
2013-04-21 05:19:00,27.9,20.0,30.43,NW,307,5.0,-999.0,71,-99.99,,,0.00,weatherlink.com 1.10,2013-04-21 09:19:00,
2013-04-21 05:34:00,28.1,20.0,30.44,NW,309,4.0,-999.0,73,-99.99,,,0.00,weatherlink.com 1.10,2013-04-21 09:34:00,
2013-04-21 05:49:00,27.9,20.0,30.45,NW,322,9.0,-999.0,72,-99.99,,,0.00,weatherlink.com 1.10,2013-04-21 09:49:00,
2013-04-21 06:04:00,27.8,20.0,30.45,NW,325,7.0,-999.0,73,-99.99,,,0.00,weatherlink.com 1.10,2013-04-21 10:04:00,
2013-04-21 06:19:00,27.6,20.0,30.47,NW,319,10.0,-999.0,74,-99.99,,,0.00,weatherlink.com 1.10,2013-04-21 10:19:00,
2013-04-21 06:34:00,27.3,20.0,30.47,NNW,327,5.0,-999.0,73,-99.99,,,0.00,weatherlink.com 1.10,2013-04-21 10:34:00,
2013-04-21 06:49:00,27.8,20.0,30.48,NW,324,6.0,-999.0,73,-99.99,,,0.00,weatherlink.com 1.10,2013-04-21 10:49:00,
2013-04-21 07:04:00,28.7,21.0,30.50,NNW,342,10.0,-999.0,72,-99.99,,,0.00,weatherlink.com 1.10,2013-04-21 11:04:00,
2013-04-21 07:19:00,29.3,20.0,30.50,NNW,343,10.0,-999.0,68,-99.99,,,0.00,weatherlink.com 1.10,2013-04-21 11:19:00,
2013-04-21 07:34:00,29.7,18.0,30.52,North,351,13.0,-999.0,63,-99.99,,,0.00,weatherlink.com 1.10,2013-04-21 11:34:00,
2013-04-21 07:49:00,30.1,19.0,30.52,NNW,342,12.0,-999.0,63,-99.99,,,0.00,weatherlink.com 1.10,2013-04-21 11:49:00,
2013-04-21 08:04:00,30.6,18.0,30.53,North,351,10.0,-999.0,59,-99.99,,,0.00,weatherlink.com 1.10,2013-04-21 12:04:00,
2013-04-21 08:19:00,31.0,18.0,30.54,NNW,336,9.0,-999.0,59,-99.99,,,0.00,weatherlink.com 1.10,2013-04-21 12:19:00,
2013-04-21 08:34:00,31.5,19.0,30.55,North,356,10.0,-999.0,60,-99.99,,,0.00,weatherlink.com 1.10,2013-04-21 12:34:00,
2013-04-21 08:49:00,31.9,18.0,30.55,NW,326,13.0,-999.0,58,-99.99,,,0.00,weatherlink.com 1.10,2013-04-21 12:49:00,
2013-04-21 09:04:00,32.5,17.0,30.55,NW,322,3.0,-999.0,54,-99.99,,,0.00,weatherlink.com 1.10,2013-04-21 13:04:00,
2013-04-21 09:19:00,32.8,18.0,30.56,North,1,5.0,-999.0,55,-99.99,,,0.00,weatherlink.com 1.10,2013-04-21 13:19:00,
2013-04-21 09:35:00,33.4,17.0,30.56,NW,315,10.0,-999.0,51,-99.99,,,0.00,weatherlink.com 1.10,2013-04-21 13:35:00,
2013-04-21 09:49:00,33.5,18.0,30.57,NNW,334,12.0,-999.0,54,-99.99,,,0.00,weatherlink.com 1.10,2013-04-21 13:49:00,
2013-04-21 10:04:00,33.5,17.0,30.57,North,351,13.0,-999.0,50,-99.99,,,0.00,weatherlink.com 1.10,2013-04-21 14:04:00,
2013-04-21 10:19:00,34.6,17.0,30.57,NNW,329,7.0,-999.0,49,-99.99,,,0.00,weatherlink.com 1.10,2013-04-21 14:19:00,
2013-04-21 10:34:00,36.2,16.0,30.58,NW,307,0.0,-999.0,44,-99.99,,,0.00,weatherlink.com 1.10,2013-04-21 14:34:00,
2013-04-21 10:49:00,37.3,16.0,30.58,NW,307,0.0,-999.0,42,-99.99,,,0.00,weatherlink.com 1.10,2013-04-21 14:49:00,
2013-04-21 11:04:00,37.3,17.0,30.59,NW,317,1.0,-999.0,43,-99.99,,,0.00,weatherlink.com 1.10,2013-04-21 15:04:00,
2013-04-21 11:19:00,37.0,16.0,30.59,NNW,334,7.0,-999.0,43,-99.99,,,0.00,weatherlink.com 1.10,2013-04-21 15:19:00,
2013-04-21 11:34:00,38.5,18.0,30.59,NW,309,0.0,-999.0,43,-99.99,,,0.00,weatherlink.com 1.10,2013-04-21 15:34:00,
2013-04-21 11:49:00,39.2,19.0,30.59,NW,313,8.0,-999.0,44,-99.99,,,0.00,weatherlink.com 1.10,2013-04-21 15:49:00,
2013-04-21 12:04:00,38.8,16.0,30.58,NNW,332,0.0,-999.0,39,-99.99,,,0.00,weatherlink.com 1.10,2013-04-21 16:04:00,
2013-04-21 12:20:00,39.8,17.0,30.58,NW,321,4.0,-999.0,39,-99.99,,,0.00,weatherlink.com 1.10,2013-04-21 16:20:00,
2013-04-21 12:35:00,40.9,20.0,30.58,North,351,8.0,-999.0,43,-99.99,,,0.00,weatherlink.com 1.10,2013-04-21 16:35:00,
2013-04-21 12:50:00,41.1,16.0,30.58,NW,309,9.0,-999.0,37,-99.99,,,0.00,weatherlink.com 1.10,2013-04-21 16:50:00,
2013-04-21 13:05:00,41.5,17.0,30.57,NNW,331,3.0,-999.0,38,-99.99,,,0.00,weatherlink.com 1.10,2013-04-21 17:05:00,
2013-04-21 13:20:00,42.2,16.0,30.57,NW,321,6.0,-999.0,35,-99.99,,,0.00,weatherlink.com 1.10,2013-04-21 17:20:00,
2013-04-21 13:35:00,42.9,16.0,30.57,NW,315,0.0,-999.0,34,-99.99,,,0.00,weatherlink.com 1.10,2013-04-21 17:35:00,
2013-04-21 13:50:00,43.5,15.0,30.56,NW,315,0.0,-999.0,32,-99.99,,,0.00,weatherlink.com 1.10,2013-04-21 17:50:00,
2013-04-21 14:05:00,45.5,18.0,30.56,NW,315,0.0,-999.0,33,-99.99,,,0.00,weatherlink.com 1.10,2013-04-21 18:05:00,
2013-04-21 14:20:00,45.1,14.0,30.56,NW,315,0.0,-999.0,28,-99.99,,,0.00,weatherlink.com 1.10,2013-04-21 18:20:00,
2013-04-21 14:35:00,45.8,14.0,30.56,NW,308,0.0,-999.0,28,-99.99,,,0.00,weatherlink.com 1.10,2013-04-21 18:35:00,
2013-04-21 14:50:00,46.2,15.0,30.55,NW,308,0.0,-999.0,29,-99.99,,,0.00,weatherlink.com 1.10,2013-04-21 18:50:00,
2013-04-21 15:05:00,46.4,16.0,30.55,NW,308,0.0,-999.0,30,-99.99,,,0.00,weatherlink.com 1.10,2013-04-21 19:05:00,
2013-04-21 15:20:00,44.8,14.0,30.55,NW,309,0.0,-999.0,29,-99.99,,,0.00,weatherlink.com 1.10,2013-04-21 19:20:00,
2013-04-21 15:35:00,45.5,15.0,30.55,NW,310,2.0,-999.0,29,-99.99,,,0.00,weatherlink.com 1.10,2013-04-21 19:35:00,
2013-04-21 15:50:00,44.9,16.0,30.54,NNW,337,4.0,-999.0,31,-99.99,,,0.00,weatherlink.com 1.10,2013-04-21 19:50:00,
2013-04-21 16:05:00,45.2,17.0,30.53,NNW,341,4.0,-999.0,33,-99.99,,,0.00,weatherlink.com 1.10,2013-04-21 20:05:00,
2013-04-21 16:20:00,45.4,15.0,30.53,NNW,338,0.0,-999.0,30,-99.99,,,0.00,weatherlink.com 1.10,2013-04-21 20:20:00,
2013-04-21 16:35:00,45.7,16.0,30.53,NNE,20,0.0,-999.0,30,-99.99,,,0.00,weatherlink.com 1.10,2013-04-21 20:35:00,
2013-04-21 16:50:00,46.4,16.0,30.52,East,84,0.0,-999.0,29,-99.99,,,0.00,weatherlink.com 1.10,2013-04-21 20:50:00,
2013-04-21 17:05:00,47.1,15.0,30.52,North,356,5.0,-999.0,28,-99.99,,,0.00,weatherlink.com 1.10,2013-04-21 21:05:00,
2013-04-21 17:20:00,46.7,16.0,30.52,North,356,0.0,-999.0,29,-99.99,,,0.00,weatherlink.com 1.10,2013-04-21 21:20:00,
2013-04-21 17:35:00,46.2,15.0,30.52,North,351,2.0,-999.0,28,-99.99,,,0.00,weatherlink.com 1.10,2013-04-21 21:35:00,
2013-04-21 17:50:00,46.4,17.0,30.52,North,1,3.0,-999.0,31,-99.99,,,0.00,weatherlink.com 1.10,2013-04-21 21:50:00,
2013-04-21 18:05:00,46.5,21.0,30.53,WNW,292,5.0,-999.0,36,-99.99,,,0.00,weatherlink.com 1.10,2013-04-21 22:05:00,
2013-04-21 18:20:00,47.0,20.0,30.53,WNW,290,7.0,-999.0,34,-99.99,,,0.00,weatherlink.com 1.10,2013-04-21 22:20:00,
2013-04-21 18:35:00,46.7,21.0,30.53,WNW,290,2.0,-999.0,37,-99.99,,,0.00,weatherlink.com 1.10,2013-04-21 22:35:00,
2013-04-21 18:50:00,46.1,20.0,30.53,WNW,292,4.0,-999.0,36,-99.99,,,0.00,weatherlink.com 1.10,2013-04-21 22:50:00,
2013-04-21 19:05:00,44.9,23.0,30.53,WNW,290,1.0,-999.0,42,-99.99,,,0.00,weatherlink.com 1.10,2013-04-21 23:05:00,
2013-04-21 19:20:00,44.2,22.0,30.53,WNW,290,4.0,-999.0,42,-99.99,,,0.00,weatherlink.com 1.10,2013-04-21 23:20:00,
2013-04-21 19:35:00,43.6,24.0,30.54,WNW,289,1.0,-999.0,46,-99.99,,,0.00,weatherlink.com 1.10,2013-04-21 23:35:00,
2013-04-21 19:50:00,42.9,24.0,30.54,WNW,289,0.0,-999.0,47,-99.99,,,0.00,weatherlink.com 1.10,2013-04-21 23:50:00,
2013-04-21 20:05:00,42.1,25.0,30.55,WNW,289,0.0,-999.0,50,-99.99,,,0.00,weatherlink.com 1.10,2013-04-22 00:05:00,
2013-04-21 20:20:00,41.1,24.0,30.55,WNW,289,0.0,-999.0,51,-99.99,,,0.00,weatherlink.com 1.10,2013-04-22 00:20:00,
2013-04-21 20:35:00,39.3,24.0,30.55,WNW,289,0.0,-999.0,54,-99.99,,,0.00,weatherlink.com 1.10,2013-04-22 00:35:00,
2013-04-21 20:50:00,38.8,24.0,30.56,WNW,289,0.0,-999.0,55,-99.99,,,0.00,weatherlink.com 1.10,2013-04-22 00:50:00,
2013-04-21 21:05:00,38.2,24.0,30.56,WNW,289,0.0,-999.0,57,-99.99,,,0.00,weatherlink.com 1.10,2013-04-22 01:05:00,
2013-04-21 21:20:00,38.2,25.0,30.56,WNW,289,0.0,-999.0,59,-99.99,,,0.00,weatherlink.com 1.10,2013-04-22 01:20:00,
2013-04-21 21:35:00,37.6,25.0,30.57,WNW,289,0.0,-999.0,62,-99.99,,,0.00,weatherlink.com 1.10,2013-04-22 01:35:00,
2013-04-21 21:50:00,35.6,26.0,30.58,WNW,289,0.0,-999.0,69,-99.99,,,0.00,weatherlink.com 1.10,2013-04-22 01:50:00,
2013-04-21 22:05:00,34.3,25.0,30.58,WNW,289,0.0,-999.0,70,-99.99,,,0.00,weatherlink.com 1.10,2013-04-22 02:05:00,
2013-04-21 22:20:00,33.8,25.0,30.58,WNW,289,0.0,-999.0,70,-99.99,,,0.00,weatherlink.com 1.10,2013-04-22 02:20:00,
2013-04-21 22:35:00,33.8,26.0,30.58,WNW,289,0.0,-999.0,73,-99.99,,,0.00,weatherlink.com 1.10,2013-04-22 02:35:00,
2013-04-21 22:50:00,33.7,25.0,30.58,WNW,289,0.0,-999.0,71,-99.99,,,0.00,weatherlink.com 1.10,2013-04-22 02:50:00,
2013-04-21 23:05:00,33.8,25.0,30.58,WNW,289,0.0,-999.0,69,-99.99,,,0.00,weatherlink.com 1.10,2013-04-22 03:05:00,
2013-04-21 23:20:00,33.4,23.0,30.57,WNW,289,0.0,-999.0,66,-99.99,,,0.00,weatherlink.com 1.10,2013-04-22 03:20:00,
2013-04-21 23:35:00,33.8,22.0,30.57,WNW,289,0.0,-999.0,62,-99.99,,,0.00,weatherlink.com 1.10,2013-04-22 03:35:00,
2013-04-21 23:51:00,34.4,20.0,30.57,WNW,289,0.0,-999.0,56,-99.99,,,0.00,weatherlink.com 1.10,2013-04-22 03:51:00,